Terminal Aerodrome Forecast
Issued by NWS

Home | Current Version | Previous Version | Text Only | Print | Product List | Glossary On
Versions: 1 2 3 4 5 6 7 8 9 10 11 12
000
FTUS45 KREV 182300
TAFMMH
TAF
KMMH 182320Z 1900/1924 29018G32KT P6SM SCT140
     FM190300 32011G18KT P6SM SCT120
     FM190700 VRB05KT P6SM FEW120
     FM191800 11010KT P6SM SCT120 BKN150
      AMD NOT SKED 1902/1914=

USA.gov is the U.S. government's official web portal to all federal, state and local government web resources and services.